sensor_id;sensor_type;location;lat;lon;timestamp;pressure;altitude;pressure_sealevel;temperature;humidity
44001;BME280;29660;42.892;24.710;2023-04-09T00:04:39;97296.94;;;6.04;100.00
44001;BME280;29660;42.892;24.710;2023-04-09T00:10:01;97259.53;;;5.74;100.00
44001;BME280;29660;42.892;24.710;2023-04-09T00:15:23;97058.38;;;4.55;100.00
44001;BME280;29660;42.892;24.710;2023-04-09T00:20:52;97095.72;;;4.86;100.00
44001;BME280;29660;42.892;24.710;2023-04-09T00:26:14;97078.72;;;4.77;100.00
44001;BME280;29660;42.892;24.710;2023-04-09T00:31:36;97356.59;;;6.39;100.00
44001;BME280;29660;42.892;24.710;2023-04-09T00:36:58;97353.63;;;6.30;100.00
44001;BME280;29660;42.892;24.710;2023-04-09T00:42:21;97341.22;;;6.36;100.00
44001;BME280;29660;42.892;24.710;2023-04-09T00:47:44;97296.50;;;6.12;100.00
44001;BME280;29660;42.892;24.710;2023-04-09T00:53:07;97339.13;;;6.38;100.00
44001;BME280;29660;42.892;24.710;2023-04-09T00:58:30;97340.22;;;6.42;100.00
44001;BME280;29660;42.892;24.710;2023-04-09T01:03:52;97047.13;;;4.43;100.00
44001;BME280;29660;42.892;24.710;2023-04-09T01:09:28;97346.91;;;6.23;100.00
44001;BME280;29660;42.892;24.710;2023-04-09T01:15:32;97356.16;;;6.20;100.00
44001;BME280;29660;42.892;24.710;2023-04-09T01:20:59;97078.41;;;4.51;100.00
44001;BME280;29660;42.892;24.710;2023-04-09T01:26:36;97341.00;;;6.15;100.00
44001;BME280;29660;42.892;24.710;2023-04-09T01:32:02;97053.28;;;4.27;100.00
44001;BME280;29660;42.892;24.710;2023-04-09T01:37:25;97353.94;;;6.12;100.00
44001;BME280;29660;42.892;24.710;2023-04-09T01:42:48;97329.13;;;6.18;100.00
44001;BME280;29660;42.892;24.710;2023-04-09T01:48:15;97290.38;;;5.85;100.00
44001;BME280;29660;42.892;24.710;2023-04-09T01:53:37;97081.91;;;4.57;100.00
44001;BME280;29660;42.892;24.710;2023-04-09T01:58:59;97262.50;;;5.77;100.00
44001;BME280;29660;42.892;24.710;2023-04-09T02:04:23;97337.31;;;6.17;100.00
44001;BME280;29660;42.892;24.710;2023-04-09T02:09:50;97311.13;;;5.93;100.00
44001;BME280;29660;42.892;24.710;2023-04-09T02:15:14;96815.16;;;2.71;100.00
44001;BME280;29660;42.892;24.710;2023-04-09T02:20:36;97258.34;;;5.59;100.00
44001;BME280;29660;42.892;24.710;2023-04-09T02:25:58;97031.31;;;4.21;100.00
44001;BME280;29660;42.892;24.710;2023-04-09T02:31:20;97289.22;;;5.76;100.00
44001;BME280;29660;42.892;24.710;2023-04-09T02:36:43;97321.47;;;5.95;100.00
44001;BME280;29660;42.892;24.710;2023-04-09T02:42:05;97075.31;;;4.59;100.00
44001;BME280;29660;42.892;24.710;2023-04-09T02:47:28;96947.19;;;3.64;100.00
44001;BME280;29660;42.892;24.710;2023-04-09T02:52:52;97004.72;;;4.06;100.00
44001;BME280;29660;42.892;24.710;2023-04-09T02:58:17;97194.03;;;5.10;100.00
44001;BME280;29660;42.892;24.710;2023-04-09T03:03:40;97016.03;;;3.84;100.00
44001;BME280;29660;42.892;24.710;2023-04-09T03:09:03;97197.00;;;5.13;100.00
44001;BME280;29660;42.892;24.710;2023-04-09T03:14:25;96862.25;;;2.84;100.00
44001;BME280;29660;42.892;24.710;2023-04-09T03:19:48;97348.91;;;5.88;100.00
44001;BME280;29660;42.892;24.710;2023-04-09T03:25:10;97152.75;;;4.43;100.00
44001;BME280;29660;42.892;24.710;2023-04-09T03:30:33;96894.47;;;2.75;100.00
44001;BME280;29660;42.892;24.710;2023-04-09T03:35:57;97335.03;;;5.54;100.00
44001;BME280;29660;42.892;24.710;2023-04-09T03:41:39;97055.22;;;3.59;100.00
44001;BME280;29660;42.892;24.710;2023-04-09T03:47:06;97343.25;;;5.36;100.00
44001;BME280;29660;42.892;24.710;2023-04-09T03:52:30;97060.91;;;3.51;100.00
44001;BME280;29660;42.892;24.710;2023-04-09T03:57:57;97295.00;;;4.90;100.00
44001;BME280;29660;42.892;24.710;2023-04-09T04:03:24;97106.59;;;3.56;100.00
44001;BME280;29660;42.892;24.710;2023-04-09T04:09:04;97352.75;;;5.15;100.00
44001;BME280;29660;42.892;24.710;2023-04-09T04:14:47;97080.09;;;3.46;100.00
44001;BME280;29660;42.892;24.710;2023-04-09T04:20:17;97068.78;;;3.34;100.00
44001;BME280;29660;42.892;24.710;2023-04-09T04:26:09;97335.94;;;5.04;100.00
44001;BME280;29660;42.892;24.710;2023-04-09T04:31:32;97028.69;;;3.15;100.00
44001;BME280;29660;42.892;24.710;2023-04-09T04:36:55;97139.84;;;3.57;100.00
44001;BME280;29660;42.892;24.710;2023-04-09T04:42:17;96887.03;;;2.09;100.00
44001;BME280;29660;42.892;24.710;2023-04-09T04:47:41;97090.06;;;3.44;100.00
44001;BME280;29660;42.892;24.710;2023-04-09T04:53:03;97156.75;;;3.90;100.00
44001;BME280;29660;42.892;24.710;2023-04-09T04:58:32;97075.22;;;3.55;100.00
44001;BME280;29660;42.892;24.710;2023-04-09T05:03:56;97357.00;;;5.38;100.00
44001;BME280;29660;42.892;24.710;2023-04-09T05:09:23;97401.47;;;5.80;100.00
44001;BME280;29660;42.892;24.710;2023-04-09T05:14:58;97079.63;;;4.05;100.00
44001;BME280;29660;42.892;24.710;2023-04-09T05:20:20;97168.22;;;4.95;100.00
44001;BME280;29660;42.892;24.710;2023-04-09T05:25:56;97325.72;;;6.23;100.00
44001;BME280;29660;42.892;24.710;2023-04-09T05:31:41;97340.53;;;6.46;100.00
44001;BME280;29660;42.892;24.710;2023-04-09T05:37:13;97073.94;;;5.01;100.00
44001;BME280;29660;42.892;24.710;2023-04-09T05:42:41;97390.38;;;7.18;100.00
44001;BME280;29660;42.892;24.710;2023-04-09T05:48:08;97379.91;;;7.38;100.00
44001;BME280;29660;42.892;24.710;2023-04-09T05:53:32;97162.69;;;6.37;100.00
44001;BME280;29660;42.892;24.710;2023-04-09T05:58:54;97051.66;;;5.88;100.00
44001;BME280;29660;42.892;24.710;2023-04-09T06:04:17;97123.88;;;6.63;100.00
44001;BME280;29660;42.892;24.710;2023-04-09T06:09:39;97324.19;;;8.06;100.00
44001;BME280;29660;42.892;24.710;2023-04-09T06:15:03;97360.97;;;8.55;100.00
44001;BME280;29660;42.892;24.710;2023-04-09T06:20:26;97138.75;;;7.57;100.00
44001;BME280;29660;42.892;24.710;2023-04-09T06:25:48;97011.03;;;6.77;100.00
44001;BME280;29660;42.892;24.710;2023-04-09T06:31:11;97139.53;;;7.37;100.00
44001;BME280;29660;42.892;24.710;2023-04-09T06:36:33;97036.53;;;6.88;100.00
44001;BME280;29660;42.892;24.710;2023-04-09T06:41:55;97097.59;;;7.34;100.00
44001;BME280;29660;42.892;24.710;2023-04-09T06:47:27;97332.78;;;8.75;100.00
44001;BME280;29660;42.892;24.710;2023-04-09T06:52:50;97191.66;;;8.15;100.00
44001;BME280;29660;42.892;24.710;2023-04-09T06:58:12;97129.75;;;7.89;100.00
44001;BME280;29660;42.892;24.710;2023-04-09T07:03:34;97368.34;;;9.45;98.69
44001;BME280;29660;42.892;24.710;2023-04-09T07:08:57;97335.81;;;9.69;98.69
44001;BME280;29660;42.892;24.710;2023-04-09T07:14:19;97348.22;;;9.99;97.01
44001;BME280;29660;42.892;24.710;2023-04-09T07:19:41;97246.00;;;9.15;93.85
44001;BME280;29660;42.892;24.710;2023-04-09T07:25:03;97147.16;;;8.92;91.84
44001;BME280;29660;42.892;24.710;2023-04-09T07:30:26;96901.50;;;7.63;90.79
44001;BME280;29660;42.892;24.710;2023-04-09T07:35:48;97357.13;;;10.68;89.46
44001;BME280;29660;42.892;24.710;2023-04-09T07:41:10;97166.09;;;9.35;89.18
44001;BME280;29660;42.892;24.710;2023-04-09T07:46:32;97113.25;;;9.57;85.10
44001;BME280;29660;42.892;24.710;2023-04-09T07:51:55;97295.34;;;10.90;84.50
44001;BME280;29660;42.892;24.710;2023-04-09T07:57:18;97073.41;;;9.42;85.22
44001;BME280;29660;42.892;24.710;2023-04-09T08:02:40;97229.16;;;10.63;82.87
44001;BME280;29660;42.892;24.710;2023-04-09T08:08:03;97371.09;;;11.52;81.67
44001;BME280;29660;42.892;24.710;2023-04-09T08:13:26;97126.28;;;9.98;81.35
44001;BME280;29660;42.892;24.710;2023-04-09T08:18:49;97152.63;;;10.34;79.83
44001;BME280;29660;42.892;24.710;2023-04-09T08:24:12;97290.72;;;11.48;79.34
44001;BME280;29660;42.892;24.710;2023-04-09T08:29:34;97091.72;;;10.46;77.58
44001;BME280;29660;42.892;24.710;2023-04-09T08:34:56;97090.94;;;10.46;77.05
44001;BME280;29660;42.892;24.710;2023-04-09T08:40:18;97103.25;;;10.66;73.85
44001;BME280;29660;42.892;24.710;2023-04-09T08:45:41;97213.56;;;11.66;71.79
44001;BME280;29660;42.892;24.710;2023-04-09T08:51:04;97346.00;;;12.58;72.62
44001;BME280;29660;42.892;24.710;2023-04-09T08:56:26;97278.59;;;12.56;67.47
44001;BME280;29660;42.892;24.710;2023-04-09T09:02:05;97163.81;;;12.08;68.67
44001;BME280;29660;42.892;24.710;2023-04-09T09:07:29;97024.69;;;11.34;63.84
44001;BME280;29660;42.892;24.710;2023-04-09T11:14:50;97045.44;;;12.35;53.11
44001;BME280;29660;42.892;24.710;2023-04-09T11:20:15;97278.03;;;13.74;55.38
44001;BME280;29660;42.892;24.710;2023-04-09T11:25:37;97285.69;;;13.39;56.88
44001;BME280;29660;42.892;24.710;2023-04-09T11:30:59;97302.44;;;13.17;59.13
44001;BME280;29660;42.892;24.710;2023-04-09T11:36:21;97307.44;;;12.91;62.13
44001;BME280;29660;42.892;24.710;2023-04-09T11:41:43;97053.63;;;11.07;65.96
44001;BME280;29660;42.892;24.710;2023-04-09T11:47:07;97275.22;;;11.93;80.94
44001;BME280;29660;42.892;24.710;2023-04-09T11:52:30;97271.84;;;11.64;84.63
44001;BME280;29660;42.892;24.710;2023-04-09T11:57:57;97098.78;;;10.32;90.07
44001;BME280;29660;42.892;24.710;2023-04-09T12:03:29;97143.97;;;10.71;97.46
44001;BME280;29660;42.892;24.710;2023-04-09T12:08:56;97266.34;;;11.74;97.53
44001;BME280;29660;42.892;24.710;2023-04-09T12:14:20;97266.78;;;12.05;97.57
44001;BME280;29660;42.892;24.710;2023-04-09T12:19:42;97198.47;;;11.75;92.47
44001;BME280;29660;42.892;24.710;2023-04-09T12:25:05;97061.41;;;11.04;91.83
44001;BME280;29660;42.892;24.710;2023-04-09T12:30:27;97104.41;;;11.59;93.92
44001;BME280;29660;42.892;24.710;2023-04-09T12:35:49;97094.31;;;12.08;91.16
44001;BME280;29660;42.892;24.710;2023-04-09T12:41:13;97247.81;;;13.60;84.42
44001;BME280;29660;42.892;24.710;2023-04-09T12:46:35;97126.28;;;13.14;82.79
44001;BME280;29660;42.892;24.710;2023-04-09T12:51:57;96985.00;;;12.34;82.71
44001;BME280;29660;42.892;24.710;2023-04-09T12:57:20;97220.69;;;13.97;81.20
44001;BME280;29660;42.892;24.710;2023-04-09T13:02:42;97216.84;;;13.90;79.76
44001;BME280;29660;42.892;24.710;2023-04-09T13:08:04;97163.50;;;13.66;76.90
44001;BME280;29660;42.892;24.710;2023-04-09T13:13:26;97250.72;;;14.22;75.34
44001;BME280;29660;42.892;24.710;2023-04-09T13:18:49;97243.84;;;14.30;71.52
44001;BME280;29660;42.892;24.710;2023-04-09T13:24:12;97234.88;;;14.57;70.20
44001;BME280;29660;42.892;24.710;2023-04-09T13:29:34;97155.66;;;14.14;69.28
44001;BME280;29660;42.892;24.710;2023-04-09T13:34:57;97009.25;;;13.15;63.28
44001;BME280;29660;42.892;24.710;2023-04-09T13:40:19;97215.47;;;14.37;61.86
44001;BME280;29660;42.892;24.710;2023-04-09T13:45:41;96998.47;;;12.70;64.21
44001;BME280;29660;42.892;24.710;2023-04-09T13:51:03;96960.44;;;12.45;67.94
44001;BME280;29660;42.892;24.710;2023-04-09T13:56:26;97161.66;;;13.53;65.22
44001;BME280;29660;42.892;24.710;2023-04-09T14:01:49;97159.00;;;13.53;64.79
44001;BME280;29660;42.892;24.710;2023-04-09T14:07:11;96950.38;;;11.87;66.14
44001;BME280;29660;42.892;24.710;2023-04-09T14:12:33;97181.03;;;13.36;65.89
44001;BME280;29660;42.892;24.710;2023-04-09T14:17:55;96941.59;;;11.82;67.57
44001;BME280;29660;42.892;24.710;2023-04-09T14:23:17;97170.69;;;13.43;68.35
44001;BME280;29660;42.892;24.710;2023-04-09T14:28:39;97143.25;;;13.23;68.30
44001;BME280;29660;42.892;24.710;2023-04-09T14:34:02;97050.00;;;12.62;71.16
44001;BME280;29660;42.892;24.710;2023-04-09T14:39:24;97209.25;;;13.69;70.99
44001;BME280;29660;42.892;24.710;2023-04-09T14:44:46;97182.00;;;13.54;68.99
44001;BME280;29660;42.892;24.710;2023-04-09T14:50:08;96941.03;;;11.98;70.21
44001;BME280;29660;42.892;24.710;2023-04-09T14:55:33;97127.84;;;13.15;68.63
44001;BME280;29660;42.892;24.710;2023-04-09T15:00:55;97100.84;;;12.89;68.50
44001;BME280;29660;42.892;24.710;2023-04-09T15:06:17;97199.50;;;13.37;68.61
44001;BME280;29660;42.892;24.710;2023-04-09T15:11:39;96900.03;;;11.48;68.00
44001;BME280;29660;42.892;24.710;2023-04-09T15:17:01;96909.31;;;11.50;68.82
44001;BME280;29660;42.892;24.710;2023-04-09T15:22:24;97168.13;;;12.96;70.10
44001;BME280;29660;42.892;24.710;2023-04-09T15:27:46;96928.59;;;11.47;71.44
44001;BME280;29660;42.892;24.710;2023-04-09T15:33:08;97173.00;;;12.94;73.88
44001;BME280;29660;42.892;24.710;2023-04-09T15:38:30;97116.78;;;12.67;73.13
44001;BME280;29660;42.892;24.710;2023-04-09T15:43:53;97179.44;;;13.07;71.87
44001;BME280;29660;42.892;24.710;2023-04-09T15:49:15;97177.84;;;12.92;73.77
44001;BME280;29660;42.892;24.710;2023-04-09T15:54:37;96887.94;;;11.04;74.08
44001;BME280;29660;42.892;24.710;2023-04-09T15:59:59;96886.22;;;10.94;73.38
44001;BME280;29660;42.892;24.710;2023-04-09T16:05:22;96953.56;;;11.24;74.19
44001;BME280;29660;42.892;24.710;2023-04-09T16:10:44;97111.16;;;12.22;73.76
44001;BME280;29660;42.892;24.710;2023-04-09T16:16:06;97164.22;;;12.47;73.76
44001;BME280;29660;42.892;24.710;2023-04-09T16:21:28;97044.91;;;11.72;74.38
44001;BME280;29660;42.892;24.710;2023-04-09T16:26:50;96865.31;;;10.50;74.77
44001;BME280;29660;42.892;24.710;2023-04-09T16:32:12;97199.16;;;12.37;74.47
44001;BME280;29660;42.892;24.710;2023-04-09T16:37:34;96937.38;;;10.64;75.98
44001;BME280;29660;42.892;24.710;2023-04-09T16:42:57;97175.47;;;11.98;78.14
44001;BME280;29660;42.892;24.710;2023-04-09T16:48:19;96900.47;;;10.09;79.82
44001;BME280;29660;42.892;24.710;2023-04-09T16:53:41;97185.31;;;11.84;81.46
44001;BME280;29660;42.892;24.710;2023-04-09T16:59:03;97003.31;;;10.58;82.28
44001;BME280;29660;42.892;24.710;2023-04-09T17:04:26;97123.41;;;11.39;83.21
44001;BME280;29660;42.892;24.710;2023-04-09T17:09:48;96924.81;;;10.02;84.30
44001;BME280;29660;42.892;24.710;2023-04-09T17:15:10;97029.47;;;10.56;84.94
44001;BME280;29660;42.892;24.710;2023-04-09T17:20:32;96926.66;;;9.78;85.07
44001;BME280;29660;42.892;24.710;2023-04-09T17:25:54;97190.63;;;11.22;86.70
44001;BME280;29660;42.892;24.710;2023-04-09T17:31:17;97114.97;;;10.65;85.22
44001;BME280;29660;42.892;24.710;2023-04-09T17:36:40;97214.59;;;11.27;84.87
44001;BME280;29660;42.892;24.710;2023-04-09T17:42:02;96938.97;;;9.45;88.32
44001;BME280;29660;42.892;24.710;2023-04-09T17:47:26;97145.06;;;10.46;93.41
44001;BME280;29660;42.892;24.710;2023-04-09T17:52:48;97244.81;;;10.98;92.83
44001;BME280;29660;42.892;24.710;2023-04-09T17:58:11;97032.78;;;9.66;92.22
44001;BME280;29660;42.892;24.710;2023-04-09T18:03:33;97168.34;;;10.36;93.48
44001;BME280;29660;42.892;24.710;2023-04-09T18:08:55;97172.34;;;10.33;94.06
44001;BME280;29660;42.892;24.710;2023-04-09T18:14:17;97192.88;;;10.38;95.54
44001;BME280;29660;42.892;24.710;2023-04-09T18:19:40;97021.13;;;9.22;97.39
44001;BME280;29660;42.892;24.710;2023-04-09T18:25:02;97241.00;;;10.51;97.09
44001;BME280;29660;42.892;24.710;2023-04-09T18:30:24;97209.22;;;10.26;97.68
44001;BME280;29660;42.892;24.710;2023-04-09T18:35:47;97007.34;;;8.71;99.21
44001;BME280;29660;42.892;24.710;2023-04-09T18:41:09;97214.16;;;10.03;100.00
44001;BME280;29660;42.892;24.710;2023-04-09T18:46:34;97254.53;;;10.21;99.72
44001;BME280;29660;42.892;24.710;2023-04-09T18:51:56;97261.19;;;10.23;99.64
44001;BME280;29660;42.892;24.710;2023-04-09T18:57:18;97168.38;;;9.57;100.00
44001;BME280;29660;42.892;24.710;2023-04-09T19:02:41;96697.56;;;6.41;100.00
44001;BME280;29660;42.892;24.710;2023-04-09T19:08:03;97291.19;;;10.00;100.00
44001;BME280;29660;42.892;24.710;2023-04-09T19:13:29;97012.78;;;8.40;100.00
44001;BME280;29660;42.892;24.710;2023-04-09T19:18:51;96979.94;;;8.10;100.00
44001;BME280;29660;42.892;24.710;2023-04-09T19:24:13;96983.13;;;8.07;100.00
44001;BME280;29660;42.892;24.710;2023-04-09T19:29:36;97144.94;;;9.09;100.00
44001;BME280;29660;42.892;24.710;2023-04-09T19:34:58;97262.53;;;9.76;100.00
44001;BME280;29660;42.892;24.710;2023-04-09T19:40:20;97259.66;;;9.68;100.00
44001;BME280;29660;42.892;24.710;2023-04-09T19:45:42;97277.72;;;9.76;100.00
44001;BME280;29660;42.892;24.710;2023-04-09T19:51:04;97087.72;;;8.47;100.00
44001;BME280;29660;42.892;24.710;2023-04-09T19:56:26;97154.63;;;8.85;100.00
44001;BME280;29660;42.892;24.710;2023-04-09T20:01:49;97256.00;;;9.48;100.00
44001;BME280;29660;42.892;24.710;2023-04-09T20:07:11;97215.16;;;9.14;100.00
44001;BME280;29660;42.892;24.710;2023-04-09T20:12:33;97270.44;;;9.32;100.00
44001;BME280;29660;42.892;24.710;2023-04-09T20:17:55;97255.50;;;9.41;100.00
44001;BME280;29660;42.892;24.710;2023-04-09T20:23:18;96983.75;;;7.74;100.00
44001;BME280;29660;42.892;24.710;2023-04-09T20:28:40;97252.88;;;9.36;100.00
44001;BME280;29660;42.892;24.710;2023-04-09T20:34:02;97257.16;;;9.32;100.00
44001;BME280;29660;42.892;24.710;2023-04-09T20:39:24;97260.84;;;9.31;100.00
44001;BME280;29660;42.892;24.710;2023-04-09T20:44:49;96968.91;;;7.42;100.00
44001;BME280;29660;42.892;24.710;2023-04-09T20:50:11;97160.56;;;8.46;100.00
44001;BME280;29660;42.892;24.710;2023-04-09T20:55:34;96919.06;;;6.83;100.00
44001;BME280;29660;42.892;24.710;2023-04-09T21:01:07;96977.97;;;7.21;100.00
44001;BME280;29660;42.892;24.710;2023-04-09T21:06:30;97010.84;;;7.40;100.00
44001;BME280;29660;42.892;24.710;2023-04-09T21:11:52;97202.25;;;8.56;100.00
44001;BME280;29660;42.892;24.710;2023-04-09T21:17:14;97195.13;;;8.41;100.00
44001;BME280;29660;42.892;24.710;2023-04-09T21:22:36;97257.28;;;8.81;100.00
44001;BME280;29660;42.892;24.710;2023-04-09T21:27:58;97263.38;;;8.81;100.00
44001;BME280;29660;42.892;24.710;2023-04-09T21:33:20;97145.44;;;7.91;100.00
44001;BME280;29660;42.892;24.710;2023-04-09T21:38:43;97275.91;;;8.55;100.00
44001;BME280;29660;42.892;24.710;2023-04-09T21:44:05;97207.84;;;8.19;100.00
44001;BME280;29660;42.892;24.710;2023-04-09T21:49:29;97254.66;;;8.45;100.00
44001;BME280;29660;42.892;24.710;2023-04-09T21:54:51;97245.84;;;8.29;100.00
44001;BME280;29660;42.892;24.710;2023-04-09T22:00:13;97263.13;;;8.27;100.00
44001;BME280;29660;42.892;24.710;2023-04-09T22:05:37;96888.28;;;5.68;100.00
44001;BME280;29660;42.892;24.710;2023-04-09T22:10:59;96973.97;;;6.04;100.00
44001;BME280;29660;42.892;24.710;2023-04-09T22:16:21;97283.78;;;7.94;100.00
44001;BME280;29660;42.892;24.710;2023-04-09T22:21:43;97184.84;;;7.16;100.00
44001;BME280;29660;42.892;24.710;2023-04-09T22:27:08;97263.94;;;7.29;100.00
44001;BME280;29660;42.892;24.710;2023-04-09T22:32:30;97224.13;;;7.24;100.00
44001;BME280;29660;42.892;24.710;2023-04-09T22:37:54;97168.28;;;6.88;100.00
44001;BME280;29660;42.892;24.710;2023-04-09T22:43:17;96881.38;;;4.82;100.00
44001;BME280;29660;42.892;24.710;2023-04-09T22:48:39;96886.31;;;4.68;100.00
44001;BME280;29660;42.892;24.710;2023-04-09T22:54:05;97191.47;;;6.60;100.00
44001;BME280;29660;42.892;24.710;2023-04-09T22:59:27;96898.59;;;4.85;100.00
44001;BME280;29660;42.892;24.710;2023-04-09T23:04:59;97225.72;;;6.72;100.00
44001;BME280;29660;42.892;24.710;2023-04-09T23:10:22;97160.53;;;6.29;100.00
44001;BME280;29660;42.892;24.710;2023-04-09T23:15:44;96961.44;;;4.83;100.00
44001;BME280;29660;42.892;24.710;2023-04-09T23:21:07;97233.81;;;6.55;100.00
44001;BME280;29660;42.892;24.710;2023-04-09T23:26:31;97245.66;;;6.48;100.00
44001;BME280;29660;42.892;24.710;2023-04-09T23:31:53;97114.19;;;5.62;100.00
44001;BME280;29660;42.892;24.710;2023-04-09T23:37:15;96942.16;;;4.55;100.00
44001;BME280;29660;42.892;24.710;2023-04-09T23:42:38;96973.84;;;4.55;100.00
44001;BME280;29660;42.892;24.710;2023-04-09T23:48:00;97066.84;;;5.06;100.00
44001;BME280;29660;42.892;24.710;2023-04-09T23:53:24;96913.19;;;4.11;100.00
44001;BME280;29660;42.892;24.710;2023-04-09T23:58:46;97156.16;;;5.53;100.00
